sensor_id;sensor_type;location;lat;lon;timestamp;pressure;altitude;pressure_sealevel;temperature;humidity
75852;BME280;64500;52.632;20.656;2023-04-06T00:00:48;101069.57;;;-0.20;67.74
75852;BME280;64500;52.632;20.656;2023-04-06T00:03:17;101072.35;;;-0.21;68.02
75852;BME280;64500;52.632;20.656;2023-04-06T00:05:44;101074.05;;;-0.22;68.03
75852;BME280;64500;52.632;20.656;2023-04-06T00:08:11;101069.51;;;-0.23;67.84
75852;BME280;64500;52.632;20.656;2023-04-06T00:10:38;101068.79;;;-0.24;68.18
75852;BME280;64500;52.632;20.656;2023-04-06T00:13:06;101060.96;;;-0.24;67.89
75852;BME280;64500;52.632;20.656;2023-04-06T00:15:34;101055.73;;;-0.24;68.08
75852;BME280;64500;52.632;20.656;2023-04-06T00:18:02;101052.23;;;-0.25;67.74
75852;BME280;64500;52.632;20.656;2023-04-06T00:20:29;101053.55;;;-0.28;67.73
75852;BME280;64500;52.632;20.656;2023-04-06T00:22:56;101051.73;;;-0.30;68.16
75852;BME280;64500;52.632;20.656;2023-04-06T00:25:23;101054.23;;;-0.34;68.18
75852;BME280;64500;52.632;20.656;2023-04-06T00:27:49;101050.19;;;-0.35;68.11
75852;BME280;64500;52.632;20.656;2023-04-06T00:30:16;101052.09;;;-0.35;68.18
75852;BME280;64500;52.632;20.656;2023-04-06T00:32:43;101055.73;;;-0.36;68.47
75852;BME280;64500;52.632;20.656;2023-04-06T00:35:10;101049.29;;;-0.36;68.35
75852;BME280;64500;52.632;20.656;2023-04-06T00:37:37;101053.84;;;-0.35;68.57
75852;BME280;64500;52.632;20.656;2023-04-06T00:40:04;101050.23;;;-0.34;68.54
75852;BME280;64500;52.632;20.656;2023-04-06T00:42:32;101048.42;;;-0.31;68.05
75852;BME280;64500;52.632;20.656;2023-04-06T00:45:00;101048.34;;;-0.28;68.33
75852;BME280;64500;52.632;20.656;2023-04-06T00:47:28;101048.73;;;-0.26;68.29
75852;BME280;64500;52.632;20.656;2023-04-06T00:49:55;101049.81;;;-0.25;68.58
75852;BME280;64500;52.632;20.656;2023-04-06T00:52:22;101050.02;;;-0.24;68.24
75852;BME280;64500;52.632;20.656;2023-04-06T00:54:49;101048.34;;;-0.22;68.34
75852;BME280;64500;52.632;20.656;2023-04-06T00:57:17;101052.23;;;-0.19;68.22
75852;BME280;64500;52.632;20.656;2023-04-06T00:59:45;101047.60;;;-0.17;68.38
75852;BME280;64500;52.632;20.656;2023-04-06T01:02:12;101044.52;;;-0.16;68.33
75852;BME280;64500;52.632;20.656;2023-04-06T01:04:39;101046.10;;;-0.15;68.44
75852;BME280;64500;52.632;20.656;2023-04-06T01:07:06;101042.80;;;-0.15;68.35
75852;BME280;64500;52.632;20.656;2023-04-06T01:09:33;101040.03;;;-0.14;67.95
75852;BME280;64500;52.632;20.656;2023-04-06T01:12:00;101039.35;;;-0.14;68.64
75852;BME280;64500;52.632;20.656;2023-04-06T01:14:27;101039.39;;;-0.13;68.24
75852;BME280;64500;52.632;20.656;2023-04-06T01:16:58;101036.27;;;-0.12;68.20
75852;BME280;64500;52.632;20.656;2023-04-06T01:19:25;101035.23;;;-0.12;68.41
75852;BME280;64500;52.632;20.656;2023-04-06T01:21:54;101031.22;;;-0.13;68.19
75852;BME280;64500;52.632;20.656;2023-04-06T01:24:21;101032.11;;;-0.12;68.44
75852;BME280;64500;52.632;20.656;2023-04-06T01:26:48;101031.07;;;-0.12;68.73
75852;BME280;64500;52.632;20.656;2023-04-06T01:29:15;101030.04;;;-0.12;68.39
75852;BME280;64500;52.632;20.656;2023-04-06T01:31:44;101027.80;;;-0.11;68.34
75852;BME280;64500;52.632;20.656;2023-04-06T01:34:11;101025.73;;;-0.10;68.41
75852;BME280;64500;52.632;20.656;2023-04-06T01:36:37;101024.90;;;-0.09;68.08
75852;BME280;64500;52.632;20.656;2023-04-06T01:39:04;101021.58;;;-0.10;68.22
75852;BME280;64500;52.632;20.656;2023-04-06T01:41:31;101023.48;;;-0.10;68.56
75852;BME280;64500;52.632;20.656;2023-04-06T01:43:58;101021.87;;;-0.11;68.53
75852;BME280;64500;52.632;20.656;2023-04-06T01:46:25;101020.80;;;-0.13;68.38
75852;BME280;64500;52.632;20.656;2023-04-06T01:48:52;101019.35;;;-0.14;68.36
75852;BME280;64500;52.632;20.656;2023-04-06T01:51:19;101019.48;;;-0.16;68.59
75852;BME280;64500;52.632;20.656;2023-04-06T01:53:46;101020.83;;;-0.17;68.63
75852;BME280;64500;52.632;20.656;2023-04-06T01:56:15;101020.60;;;-0.19;68.63
75852;BME280;64500;52.632;20.656;2023-04-06T01:58:42;101017.43;;;-0.21;68.53
75852;BME280;64500;52.632;20.656;2023-04-06T02:01:08;101014.75;;;-0.24;68.69
75852;BME280;64500;52.632;20.656;2023-04-06T02:03:36;101012.77;;;-0.26;68.65
75852;BME280;64500;52.632;20.656;2023-04-06T02:06:03;101010.68;;;-0.27;68.70
75852;BME280;64500;52.632;20.656;2023-04-06T02:08:30;101013.80;;;-0.27;68.77
75852;BME280;64500;52.632;20.656;2023-04-06T02:10:59;101013.05;;;-0.28;68.64
75852;BME280;64500;52.632;20.656;2023-04-06T02:13:26;101007.98;;;-0.30;68.97
75852;BME280;64500;52.632;20.656;2023-04-06T02:15:53;101003.91;;;-0.32;69.45
75852;BME280;64500;52.632;20.656;2023-04-06T02:18:20;101006.31;;;-0.33;69.39
75852;BME280;64500;52.632;20.656;2023-04-06T02:20:47;101004.67;;;-0.35;69.39
75852;BME280;64500;52.632;20.656;2023-04-06T02:23:14;101006.17;;;-0.38;69.12
75852;BME280;64500;52.632;20.656;2023-04-06T02:25:41;101002.06;;;-0.41;69.26
75852;BME280;64500;52.632;20.656;2023-04-06T02:28:08;101005.14;;;-0.43;69.25
75852;BME280;64500;52.632;20.656;2023-04-06T02:30:35;101000.34;;;-0.47;69.27
75852;BME280;64500;52.632;20.656;2023-04-06T02:33:02;101003.02;;;-0.50;69.50
75852;BME280;64500;52.632;20.656;2023-04-06T02:35:30;100999.25;;;-0.54;69.56
75852;BME280;64500;52.632;20.656;2023-04-06T02:37:58;100997.23;;;-0.58;69.69
75852;BME280;64500;52.632;20.656;2023-04-06T02:40:24;101000.65;;;-0.65;69.57
75852;BME280;64500;52.632;20.656;2023-04-06T02:42:51;100999.21;;;-0.72;69.69
75852;BME280;64500;52.632;20.656;2023-04-06T02:45:18;100999.50;;;-0.79;69.78
75852;BME280;64500;52.632;20.656;2023-04-06T02:47:45;101003.11;;;-0.86;69.90
75852;BME280;64500;52.632;20.656;2023-04-06T02:50:12;101004.77;;;-0.93;70.16
75852;BME280;64500;52.632;20.656;2023-04-06T02:52:39;101004.11;;;-1.03;69.93
75852;BME280;64500;52.632;20.656;2023-04-06T02:55:06;101004.25;;;-1.15;69.88
75852;BME280;64500;52.632;20.656;2023-04-06T02:57:34;101003.45;;;-1.23;70.10
75852;BME280;64500;52.632;20.656;2023-04-06T03:00:01;101006.63;;;-1.27;70.19
75852;BME280;64500;52.632;20.656;2023-04-06T03:02:28;101003.81;;;-1.28;70.58
75852;BME280;64500;52.632;20.656;2023-04-06T03:04:55;101007.42;;;-1.29;70.82
75852;BME280;64500;52.632;20.656;2023-04-06T03:07:22;101008.02;;;-1.32;70.67
75852;BME280;64500;52.632;20.656;2023-04-06T03:09:48;101008.53;;;-1.37;70.96
75852;BME280;64500;52.632;20.656;2023-04-06T03:12:16;101009.42;;;-1.42;70.66
75852;BME280;64500;52.632;20.656;2023-04-06T03:14:43;101008.42;;;-1.45;70.99
75852;BME280;64500;52.632;20.656;2023-04-06T03:17:10;101007.46;;;-1.48;71.22
75852;BME280;64500;52.632;20.656;2023-04-06T03:19:37;101009.13;;;-1.50;71.53
75852;BME280;64500;52.632;20.656;2023-04-06T03:22:03;101012.87;;;-1.52;71.76
75852;BME280;64500;52.632;20.656;2023-04-06T03:24:30;101011.58;;;-1.55;71.65
75852;BME280;64500;52.632;20.656;2023-04-06T03:26:57;101010.80;;;-1.57;71.50
75852;BME280;64500;52.632;20.656;2023-04-06T03:29:24;101009.83;;;-1.60;71.91
75852;BME280;64500;52.632;20.656;2023-04-06T03:31:51;101010.05;;;-1.64;71.76
75852;BME280;64500;52.632;20.656;2023-04-06T03:34:18;101012.39;;;-1.66;72.01
75852;BME280;64500;52.632;20.656;2023-04-06T03:36:44;101018.36;;;-1.69;72.14
75852;BME280;64500;52.632;20.656;2023-04-06T03:39:12;101017.45;;;-1.70;72.09
75852;BME280;64500;52.632;20.656;2023-04-06T03:41:38;101020.41;;;-1.70;72.22
75852;BME280;64500;52.632;20.656;2023-04-06T03:44:05;101016.05;;;-1.70;72.36
75852;BME280;64500;52.632;20.656;2023-04-06T03:46:32;101016.89;;;-1.71;72.49
75852;BME280;64500;52.632;20.656;2023-04-06T03:48:59;101016.34;;;-1.72;72.36
75852;BME280;64500;52.632;20.656;2023-04-06T03:51:27;101019.34;;;-1.75;72.49
75852;BME280;64500;52.632;20.656;2023-04-06T03:53:54;101019.56;;;-1.79;72.55
75852;BME280;64500;52.632;20.656;2023-04-06T03:56:21;101022.52;;;-1.79;72.83
75852;BME280;64500;52.632;20.656;2023-04-06T03:58:48;101023.59;;;-1.78;72.84
75852;BME280;64500;52.632;20.656;2023-04-06T04:01:19;101019.98;;;-1.76;72.97
75852;BME280;64500;52.632;20.656;2023-04-06T04:03:46;101019.17;;;-1.75;73.39
75852;BME280;64500;52.632;20.656;2023-04-06T04:06:13;101020.34;;;-1.72;73.53
75852;BME280;64500;52.632;20.656;2023-04-06T04:08:39;101020.23;;;-1.70;73.42
75852;BME280;64500;52.632;20.656;2023-04-06T04:11:06;101019.45;;;-1.67;73.70
75852;BME280;64500;52.632;20.656;2023-04-06T04:13:33;101019.84;;;-1.62;74.00
75852;BME280;64500;52.632;20.656;2023-04-06T04:16:00;101018.13;;;-1.56;74.08
75852;BME280;64500;52.632;20.656;2023-04-06T04:18:29;101014.35;;;-1.49;74.23
75852;BME280;64500;52.632;20.656;2023-04-06T04:20:56;101019.23;;;-1.43;74.26
75852;BME280;64500;52.632;20.656;2023-04-06T04:23:23;101018.73;;;-1.38;74.33
75852;BME280;64500;52.632;20.656;2023-04-06T04:25:50;101023.83;;;-1.31;74.31
75852;BME280;64500;52.632;20.656;2023-04-06T04:28:17;101023.06;;;-1.23;74.44
75852;BME280;64500;52.632;20.656;2023-04-06T04:30:45;101022.25;;;-1.16;74.30
75852;BME280;64500;52.632;20.656;2023-04-06T04:33:12;101020.77;;;-1.08;74.29
75852;BME280;64500;52.632;20.656;2023-04-06T04:35:39;101020.18;;;-1.00;74.60
75852;BME280;64500;52.632;20.656;2023-04-06T04:38:06;101018.39;;;-0.91;74.52
75852;BME280;64500;52.632;20.656;2023-04-06T04:40:33;101013.87;;;-0.80;74.38
75852;BME280;64500;52.632;20.656;2023-04-06T04:43:00;101011.71;;;-0.72;74.39
75852;BME280;64500;52.632;20.656;2023-04-06T04:45:27;101013.30;;;-0.65;74.19
75852;BME280;64500;52.632;20.656;2023-04-06T04:47:54;101011.24;;;-0.59;73.88
75852;BME280;64500;52.632;20.656;2023-04-06T04:50:21;101012.07;;;-0.55;74.15
75852;BME280;64500;52.632;20.656;2023-04-06T04:52:48;101004.16;;;-0.52;73.87
75852;BME280;64500;52.632;20.656;2023-04-06T04:55:15;101007.16;;;-0.51;74.00
75852;BME280;64500;52.632;20.656;2023-04-06T04:57:42;101006.88;;;-0.49;73.90
75852;BME280;64500;52.632;20.656;2023-04-06T05:00:09;101003.06;;;-0.48;73.78
75852;BME280;64500;52.632;20.656;2023-04-06T05:02:36;101002.73;;;-0.48;74.22
75852;BME280;64500;52.632;20.656;2023-04-06T05:05:04;101002.94;;;-0.47;73.94
75852;BME280;64500;52.632;20.656;2023-04-06T05:07:31;101003.51;;;-0.45;74.18
75852;BME280;64500;52.632;20.656;2023-04-06T05:09:58;101004.98;;;-0.43;74.41
75852;BME280;64500;52.632;20.656;2023-04-06T05:12:25;101007.00;;;-0.39;74.18
75852;BME280;64500;52.632;20.656;2023-04-06T05:14:53;101004.52;;;-0.35;74.11
75852;BME280;64500;52.632;20.656;2023-04-06T05:17:20;101004.51;;;-0.30;74.03
75852;BME280;64500;52.632;20.656;2023-04-06T05:19:47;101002.39;;;-0.25;74.46
75852;BME280;64500;52.632;20.656;2023-04-06T05:22:14;101006.67;;;-0.21;74.29
75852;BME280;64500;52.632;20.656;2023-04-06T05:24:44;101004.14;;;-0.17;74.09
75852;BME280;64500;52.632;20.656;2023-04-06T05:27:11;100999.40;;;-0.14;74.48
75852;BME280;64500;52.632;20.656;2023-04-06T05:29:37;101000.02;;;-0.10;74.50
75852;BME280;64500;52.632;20.656;2023-04-06T05:32:04;101000.30;;;-0.07;74.55
75852;BME280;64500;52.632;20.656;2023-04-06T05:34:32;100999.75;;;-0.02;74.41
75852;BME280;64500;52.632;20.656;2023-04-06T05:36:59;100998.23;;;0.06;74.30
75852;BME280;64500;52.632;20.656;2023-04-06T05:39:26;100993.39;;;0.20;74.45
75852;BME280;64500;52.632;20.656;2023-04-06T05:41:53;100995.29;;;0.38;74.35
75852;BME280;64500;52.632;20.656;2023-04-06T05:44:20;101001.52;;;0.57;74.24
75852;BME280;64500;52.632;20.656;2023-04-06T05:46:49;101001.13;;;0.75;74.06
75852;BME280;64500;52.632;20.656;2023-04-06T05:49:16;100994.64;;;0.94;74.03
75852;BME280;64500;52.632;20.656;2023-04-06T05:51:43;100995.59;;;1.12;73.78
75852;BME280;64500;52.632;20.656;2023-04-06T05:54:10;100996.44;;;1.26;73.09
75852;BME280;64500;52.632;20.656;2023-04-06T05:56:36;100994.11;;;1.30;72.55
75852;BME280;64500;52.632;20.656;2023-04-06T05:59:03;100988.74;;;1.32;72.35
75852;BME280;64500;52.632;20.656;2023-04-06T06:01:30;100987.58;;;1.34;72.04
75852;BME280;64500;52.632;20.656;2023-04-06T06:03:57;100985.83;;;1.33;71.61
75852;BME280;64500;52.632;20.656;2023-04-06T06:06:24;100985.32;;;1.34;71.31
75852;BME280;64500;52.632;20.656;2023-04-06T06:08:51;100982.61;;;1.37;71.41
75852;BME280;64500;52.632;20.656;2023-04-06T06:11:18;100983.30;;;1.45;71.29
75852;BME280;64500;52.632;20.656;2023-04-06T06:13:45;100988.17;;;1.61;71.12
75852;BME280;64500;52.632;20.656;2023-04-06T06:16:12;100983.85;;;1.79;70.85
75852;BME280;64500;52.632;20.656;2023-04-06T06:18:38;100984.69;;;2.02;70.24
75852;BME280;64500;52.632;20.656;2023-04-06T06:21:05;100983.38;;;2.24;70.11
75852;BME280;64500;52.632;20.656;2023-04-06T06:23:34;100975.84;;;2.50;69.80
75852;BME280;64500;52.632;20.656;2023-04-06T06:26:01;100975.23;;;2.75;69.33
75852;BME280;64500;52.632;20.656;2023-04-06T06:28:28;100975.17;;;2.93;68.70
75852;BME280;64500;52.632;20.656;2023-04-06T06:30:55;100979.67;;;3.12;68.29
75852;BME280;64500;52.632;20.656;2023-04-06T06:33:22;100969.32;;;3.32;67.89
75852;BME280;64500;52.632;20.656;2023-04-06T06:35:49;100970.67;;;3.42;66.16
75852;BME280;64500;52.632;20.656;2023-04-06T06:38:18;100965.49;;;3.33;65.76
75852;BME280;64500;52.632;20.656;2023-04-06T06:40:46;100968.14;;;3.24;65.17
75852;BME280;64500;52.632;20.656;2023-04-06T06:43:13;100964.51;;;3.15;64.87
75852;BME280;64500;52.632;20.656;2023-04-06T06:45:41;100967.63;;;3.13;64.48
75852;BME280;64500;52.632;20.656;2023-04-06T06:48:08;100965.12;;;3.09;64.51
75852;BME280;64500;52.632;20.656;2023-04-06T06:50:35;100960.64;;;3.13;64.32
75852;BME280;64500;52.632;20.656;2023-04-06T06:53:02;100960.22;;;3.19;64.53
75852;BME280;64500;52.632;20.656;2023-04-06T06:55:29;100959.39;;;3.34;64.67
75852;BME280;64500;52.632;20.656;2023-04-06T06:57:56;100963.48;;;3.39;63.89
75852;BME280;64500;52.632;20.656;2023-04-06T07:00:23;100959.79;;;3.38;63.29
75852;BME280;64500;52.632;20.656;2023-04-06T07:02:50;100957.66;;;3.36;63.19
75852;BME280;64500;52.632;20.656;2023-04-06T07:05:17;100963.05;;;3.46;63.15
75852;BME280;64500;52.632;20.656;2023-04-06T07:07:44;100955.38;;;3.59;63.25
75852;BME280;64500;52.632;20.656;2023-04-06T07:10:11;100949.15;;;3.78;61.97
75852;BME280;64500;52.632;20.656;2023-04-06T07:12:38;100952.47;;;4.09;61.86
75852;BME280;64500;52.632;20.656;2023-04-06T07:15:05;100957.93;;;4.44;61.15
75852;BME280;64500;52.632;20.656;2023-04-06T07:17:32;100947.63;;;4.64;60.75
75852;BME280;64500;52.632;20.656;2023-04-06T07:19:59;100953.88;;;4.77;59.93
75852;BME280;64500;52.632;20.656;2023-04-06T07:22:26;100955.35;;;4.68;56.90
75852;BME280;64500;52.632;20.656;2023-04-06T07:24:53;100943.05;;;4.61;57.32
75852;BME280;64500;52.632;20.656;2023-04-06T07:27:21;100944.03;;;4.73;57.91
75852;BME280;64500;52.632;20.656;2023-04-06T07:29:48;100940.77;;;4.81;56.99
75852;BME280;64500;52.632;20.656;2023-04-06T07:32:15;100937.84;;;4.87;56.97
75852;BME280;64500;52.632;20.656;2023-04-06T07:34:42;100932.77;;;4.88;55.90
75852;BME280;64500;52.632;20.656;2023-04-06T07:37:08;100940.64;;;4.87;56.70
75852;BME280;64500;52.632;20.656;2023-04-06T07:39:35;100938.73;;;4.91;55.42
75852;BME280;64500;52.632;20.656;2023-04-06T07:42:02;100942.98;;;4.96;55.90
75852;BME280;64500;52.632;20.656;2023-04-06T07:44:29;100942.06;;;5.14;55.77
75852;BME280;64500;52.632;20.656;2023-04-06T07:46:56;100947.79;;;5.30;55.51
75852;BME280;64500;52.632;20.656;2023-04-06T07:49:24;100944.02;;;5.45;54.73
75852;BME280;64500;52.632;20.656;2023-04-06T07:51:51;100946.53;;;5.57;55.32
75852;BME280;64500;52.632;20.656;2023-04-06T07:54:18;100949.03;;;5.66;54.19
75852;BME280;64500;52.632;20.656;2023-04-06T07:56:45;100947.61;;;5.63;53.84
75852;BME280;64500;52.632;20.656;2023-04-06T07:59:12;100942.87;;;5.61;53.08
75852;BME280;64500;52.632;20.656;2023-04-06T08:01:40;100950.58;;;5.61;52.84
75852;BME280;64500;52.632;20.656;2023-04-06T08:04:07;100941.65;;;5.63;52.81
75852;BME280;64500;52.632;20.656;2023-04-06T08:06:34;100939.91;;;5.68;52.95
75852;BME280;64500;52.632;20.656;2023-04-06T08:09:03;100937.86;;;5.77;52.81
75852;BME280;64500;52.632;20.656;2023-04-06T08:11:30;100943.70;;;5.90;52.58
75852;BME280;64500;52.632;20.656;2023-04-06T08:13:57;100952.27;;;5.85;51.57
75852;BME280;64500;52.632;20.656;2023-04-06T08:16:24;100944.52;;;5.77;51.25
75852;BME280;64500;52.632;20.656;2023-04-06T08:18:51;100942.73;;;5.70;51.99
75852;BME280;64500;52.632;20.656;2023-04-06T08:21:18;100940.61;;;5.66;52.59
75852;BME280;64500;52.632;20.656;2023-04-06T08:23:45;100933.19;;;5.55;52.18
75852;BME280;64500;52.632;20.656;2023-04-06T08:26:12;100934.14;;;5.35;51.63
75852;BME280;64500;52.632;20.656;2023-04-06T08:28:39;100939.64;;;5.19;51.63
75852;BME280;64500;52.632;20.656;2023-04-06T08:31:07;100938.84;;;5.05;51.96
75852;BME280;64500;52.632;20.656;2023-04-06T08:33:34;100930.09;;;5.05;51.97
75852;BME280;64500;52.632;20.656;2023-04-06T08:36:13;100931.55;;;5.14;51.92
75852;BME280;64500;52.632;20.656;2023-04-06T08:38:41;100931.77;;;5.19;52.17
75852;BME280;64500;52.632;20.656;2023-04-06T08:41:10;100937.59;;;5.25;52.68
75852;BME280;64500;52.632;20.656;2023-04-06T08:43:54;100937.59;;;5.28;52.76
75852;BME280;64500;52.632;20.656;2023-04-06T08:46:23;100929.14;;;5.20;53.12
75852;BME280;64500;52.632;20.656;2023-04-06T08:49:01;100928.26;;;5.21;53.89
75852;BME280;64500;52.632;20.656;2023-04-06T08:51:29;100932.40;;;5.38;53.99
75852;BME280;64500;52.632;20.656;2023-04-06T08:53:58;100931.64;;;5.30;55.00
75852;BME280;64500;52.632;20.656;2023-04-06T08:56:28;100926.26;;;5.11;56.31
75852;BME280;64500;52.632;20.656;2023-04-06T08:58:56;100932.04;;;5.09;57.06
75852;BME280;64500;52.632;20.656;2023-04-06T09:01:26;100932.92;;;5.10;56.93
75852;BME280;64500;52.632;20.656;2023-04-06T09:03:58;100931.54;;;5.13;56.75
75852;BME280;64500;52.632;20.656;2023-04-06T09:06:26;100930.61;;;5.33;56.84
75852;BME280;64500;52.632;20.656;2023-04-06T09:08:54;100928.63;;;5.54;56.48
75852;BME280;64500;52.632;20.656;2023-04-06T09:11:21;100925.52;;;5.61;56.39
75852;BME280;64500;52.632;20.656;2023-04-06T09:13:51;100923.06;;;5.64;56.19
75852;BME280;64500;52.632;20.656;2023-04-06T09:16:19;100920.45;;;5.67;55.55
75852;BME280;64500;52.632;20.656;2023-04-06T09:18:47;100912.92;;;5.69;55.14
75852;BME280;64500;52.632;20.656;2023-04-06T09:21:17;100911.15;;;5.64;55.47
75852;BME280;64500;52.632;20.656;2023-04-06T09:23:45;100910.99;;;5.71;55.16
75852;BME280;64500;52.632;20.656;2023-04-06T09:26:14;100906.46;;;5.77;55.34
75852;BME280;64500;52.632;20.656;2023-04-06T09:31:09;100907.48;;;5.69;54.64
75852;BME280;64500;52.632;20.656;2023-04-06T09:33:43;100904.30;;;5.63;54.32
75852;BME280;64500;52.632;20.656;2023-04-06T09:36:11;100902.40;;;5.70;54.62
75852;BME280;64500;52.632;20.656;2023-04-06T09:38:51;100899.48;;;5.87;54.80
75852;BME280;64500;52.632;20.656;2023-04-06T09:41:31;100907.27;;;6.01;54.41
75852;BME280;64500;52.632;20.656;2023-04-06T09:44:09;100902.72;;;6.05;54.08
75852;BME280;64500;52.632;20.656;2023-04-06T09:46:38;100898.36;;;6.12;54.29
75852;BME280;64500;52.632;20.656;2023-04-06T09:49:07;100898.39;;;6.25;54.47
75852;BME280;64500;52.632;20.656;2023-04-06T09:51:45;100902.05;;;6.20;54.24
75852;BME280;64500;52.632;20.656;2023-04-06T09:54:19;100901.48;;;6.01;55.22
75852;BME280;64500;52.632;20.656;2023-04-06T09:59:44;100893.36;;;5.47;57.19
75852;BME280;64500;52.632;20.656;2023-04-06T10:07:59;100884.41;;;4.86;58.61
75852;BME280;64500;52.632;20.656;2023-04-06T10:10:28;100875.06;;;4.78;58.30
75852;BME280;64500;52.632;20.656;2023-04-06T10:12:56;100874.66;;;4.72;58.52
75852;BME280;64500;52.632;20.656;2023-04-06T10:15:23;100872.56;;;4.71;58.87
75852;BME280;64500;52.632;20.656;2023-04-06T10:17:51;100873.29;;;4.74;59.01
75852;BME280;64500;52.632;20.656;2023-04-06T10:20:28;100862.27;;;4.77;59.69
75852;BME280;64500;52.632;20.656;2023-04-06T10:23:08;100866.14;;;4.80;59.78
75852;BME280;64500;52.632;20.656;2023-04-06T10:25:36;100861.40;;;4.78;60.14
75852;BME280;64500;52.632;20.656;2023-04-06T10:28:08;100860.16;;;4.75;60.28
75852;BME280;64500;52.632;20.656;2023-04-06T10:30:42;100855.19;;;4.67;59.87
75852;BME280;64500;52.632;20.656;2023-04-06T10:33:16;100850.90;;;4.55;60.00
75852;BME280;64500;52.632;20.656;2023-04-06T10:35:44;100847.69;;;4.49;60.56
75852;BME280;64500;52.632;20.656;2023-04-06T10:38:11;100855.96;;;4.32;61.61
75852;BME280;64500;52.632;20.656;2023-04-06T10:40:42;100851.52;;;4.07;62.06
75852;BME280;64500;52.632;20.656;2023-04-06T10:43:22;100843.92;;;3.98;62.67
75852;BME280;64500;52.632;20.656;2023-04-06T10:45:57;100841.55;;;3.88;64.13
75852;BME280;64500;52.632;20.656;2023-04-06T10:48:24;100835.69;;;3.81;64.68
75852;BME280;64500;52.632;20.656;2023-04-06T10:50:52;100829.35;;;3.75;65.28
75852;BME280;64500;52.632;20.656;2023-04-06T10:53:27;100830.01;;;3.72;66.95
75852;BME280;64500;52.632;20.656;2023-04-06T10:55:56;100822.09;;;3.66;67.77
75852;BME280;64500;52.632;20.656;2023-04-06T10:58:27;100835.69;;;3.49;68.01
75852;BME280;64500;52.632;20.656;2023-04-06T11:00:54;100838.70;;;3.23;68.10
75852;BME280;64500;52.632;20.656;2023-04-06T11:03:26;100834.20;;;2.89;69.07
75852;BME280;64500;52.632;20.656;2023-04-06T11:05:53;100826.33;;;2.64;70.37
75852;BME280;64500;52.632;20.656;2023-04-06T11:08:33;100826.55;;;2.44;71.12
75852;BME280;64500;52.632;20.656;2023-04-06T11:11:12;100828.73;;;2.28;72.75
75852;BME280;64500;52.632;20.656;2023-04-06T11:13:44;100835.95;;;2.21;73.14
75852;BME280;64500;52.632;20.656;2023-04-06T11:16:16;100830.87;;;2.20;73.17
75852;BME280;64500;52.632;20.656;2023-04-06T11:18:48;100828.45;;;2.22;73.13
75852;BME280;64500;52.632;20.656;2023-04-06T11:21:15;100827.64;;;2.26;73.56
75852;BME280;64500;52.632;20.656;2023-04-06T11:23:42;100825.09;;;2.29;74.34
75852;BME280;64500;52.632;20.656;2023-04-06T11:26:11;100823.84;;;2.27;74.51
75852;BME280;64500;52.632;20.656;2023-04-06T11:28:39;100818.03;;;2.24;74.74
75852;BME280;64500;52.632;20.656;2023-04-06T11:31:07;100811.02;;;2.23;75.54
75852;BME280;64500;52.632;20.656;2023-04-06T11:33:38;100810.43;;;2.19;76.31
75852;BME280;64500;52.632;20.656;2023-04-06T11:36:05;100810.37;;;2.15;76.68
75852;BME280;64500;52.632;20.656;2023-04-06T11:38:33;100808.26;;;2.14;77.01
75852;BME280;64500;52.632;20.656;2023-04-06T11:41:01;100795.81;;;2.20;77.61
75852;BME280;64500;52.632;20.656;2023-04-06T11:43:30;100789.38;;;2.33;77.51
75852;BME280;64500;52.632;20.656;2023-04-06T11:46:02;100787.31;;;2.46;77.17
75852;BME280;64500;52.632;20.656;2023-04-06T11:48:30;100779.55;;;2.63;77.23
75852;BME280;64500;52.632;20.656;2023-04-06T11:50:58;100786.42;;;2.80;76.37
75852;BME280;64500;52.632;20.656;2023-04-06T11:53:28;100786.48;;;2.84;75.29
75852;BME280;64500;52.632;20.656;2023-04-06T11:55:56;100785.83;;;2.88;75.09
75852;BME280;64500;52.632;20.656;2023-04-06T11:58:23;100785.40;;;2.95;75.06
75852;BME280;64500;52.632;20.656;2023-04-06T12:00:50;100791.13;;;2.93;74.07
75852;BME280;64500;52.632;20.656;2023-04-06T12:03:17;100792.93;;;2.83;72.54
75852;BME280;64500;52.632;20.656;2023-04-06T12:05:44;100782.17;;;2.76;73.15
75852;BME280;64500;52.632;20.656;2023-04-06T12:08:11;100774.72;;;2.80;73.74
75852;BME280;64500;52.632;20.656;2023-04-06T12:10:38;100775.04;;;2.90;73.66
75852;BME280;64500;52.632;20.656;2023-04-06T12:13:05;100770.80;;;3.01;73.88
75852;BME280;64500;52.632;20.656;2023-04-06T12:15:32;100769.56;;;3.14;73.44
75852;BME280;64500;52.632;20.656;2023-04-06T12:17:59;100767.89;;;3.20;71.85
75852;BME280;64500;52.632;20.656;2023-04-06T12:20:26;100775.22;;;3.20;71.34
75852;BME280;64500;52.632;20.656;2023-04-06T12:22:53;100773.34;;;3.22;70.78
75852;BME280;64500;52.632;20.656;2023-04-06T12:25:20;100763.96;;;3.26;69.89
75852;BME280;64500;52.632;20.656;2023-04-06T12:27:47;100767.88;;;3.34;69.68
75852;BME280;64500;52.632;20.656;2023-04-06T12:30:14;100760.08;;;3.40;69.72
75852;BME280;64500;52.632;20.656;2023-04-06T12:32:42;100751.63;;;3.50;69.44
75852;BME280;64500;52.632;20.656;2023-04-06T12:35:09;100750.83;;;3.57;69.43
75852;BME280;64500;52.632;20.656;2023-04-06T12:37:38;100753.73;;;3.67;69.41
75852;BME280;64500;52.632;20.656;2023-04-06T12:40:05;100752.23;;;3.75;68.91
75852;BME280;64500;52.632;20.656;2023-04-06T12:42:34;100752.96;;;3.78;68.95
75852;BME280;64500;52.632;20.656;2023-04-06T12:45:01;100764.15;;;3.78;68.74
75852;BME280;64500;52.632;20.656;2023-04-06T12:47:28;100762.75;;;3.77;68.00
75852;BME280;64500;52.632;20.656;2023-04-06T12:49:55;100756.45;;;3.76;68.32
75852;BME280;64500;52.632;20.656;2023-04-06T12:52:23;100749.82;;;3.77;68.30
75852;BME280;64500;52.632;20.656;2023-04-06T12:54:50;100741.98;;;3.80;68.19
75852;BME280;64500;52.632;20.656;2023-04-06T12:57:18;100739.71;;;3.83;67.92
75852;BME280;64500;52.632;20.656;2023-04-06T12:59:45;100733.45;;;3.87;67.95